createdAt,value
2019-03-30T00:02:38.177Z,60.84
2019-03-30T00:06:02.117Z,60.81
2019-03-30T00:09:26.285Z,61.77
2019-03-30T00:12:50.670Z,62.04
2019-03-30T00:16:14.732Z,62.59
2019-03-30T00:19:38.672Z,61.90
2019-03-30T00:23:02.758Z,61.98
2019-03-30T00:26:26.731Z,61.62
2019-03-30T00:29:50.680Z,63.03
2019-03-30T00:33:14.581Z,62.79
2019-03-30T00:36:38.539Z,62.48
2019-03-30T00:40:02.500Z,63.19
2019-03-30T00:43:26.584Z,62.93
2019-03-30T00:46:50.724Z,62.75
2019-03-30T00:50:14.649Z,63.09
2019-03-30T00:53:38.596Z,64.08
2019-03-30T00:57:02.546Z,63.63
2019-03-30T01:00:26.511Z,63.36
2019-03-30T01:03:50.884Z,63.53
2019-03-30T01:07:15.437Z,64.01
2019-03-30T01:10:39.814Z,64.60
2019-03-30T01:14:03.962Z,64.23
2019-03-30T01:17:28.006Z,64.04
2019-03-30T01:20:51.949Z,64.73
2019-03-30T01:24:15.858Z,64.90
2019-03-30T01:27:40.953Z,64.87
2019-03-30T01:31:05.056Z,64.72
2019-03-30T01:34:30.094Z,66.01
2019-03-30T01:37:54.052Z,64.96
2019-03-30T01:41:18.040Z,64.67
2019-03-30T01:44:41.939Z,64.65
2019-03-30T01:48:05.879Z,64.45
2019-03-30T01:51:29.803Z,66.06
2019-03-30T01:54:53.760Z,64.71
2019-03-30T01:58:17.688Z,65.01
2019-03-30T02:01:41.630Z,63.50
2019-03-30T02:05:05.807Z,63.38
2019-03-30T02:08:29.707Z,61.52
2019-03-30T02:11:54.135Z,61.32
2019-03-30T02:15:18.059Z,60.41
2019-03-30T02:18:42.134Z,59.47
2019-03-30T02:22:06.168Z,59.93
2019-03-30T02:25:30.079Z,60.17
2019-03-30T02:28:54.018Z,60.94
2019-03-30T02:32:17.930Z,61.08
2019-03-30T02:35:41.939Z,59.85
2019-03-30T02:39:06.622Z,61.89
2019-03-30T02:42:30.612Z,62.13
2019-03-30T02:45:54.545Z,63.31
2019-03-30T02:49:18.610Z,62.29
2019-03-30T02:52:42.559Z,62.22
2019-03-30T02:56:06.575Z,61.54
2019-03-30T02:59:30.491Z,61.15
2019-03-30T03:02:55.499Z,60.46
2019-03-30T03:06:19.438Z,60.00
2019-03-30T03:09:43.338Z,61.22
2019-03-30T03:13:07.256Z,59.31
2019-03-30T03:16:32.368Z,60.01
2019-03-30T03:19:56.215Z,60.59
2019-03-30T03:23:20.160Z,59.73
2019-03-30T03:26:44.119Z,59.41
2019-03-30T03:30:08.613Z,58.79
2019-03-30T03:33:32.584Z,58.45
2019-03-30T03:36:57.702Z,59.11
2019-03-30T03:40:21.635Z,59.04
2019-03-30T03:43:45.538Z,59.64
2019-03-30T03:47:09.557Z,59.71
2019-03-30T03:50:45.328Z,59.51
2019-03-30T03:54:09.369Z,59.59
2019-03-30T03:57:39.626Z,59.38
2019-03-30T04:01:04.316Z,59.24
2019-03-30T04:04:29.929Z,59.61
2019-03-30T04:07:56.219Z,60.52
2019-03-30T04:11:22.677Z,60.15
2019-03-30T04:14:51.578Z,60.13
2019-03-30T04:18:16.192Z,59.81
2019-03-30T04:21:44.405Z,61.12
2019-03-30T04:25:06.460Z,61.12
2019-03-30T04:28:31.061Z,60.13
2019-03-30T04:31:55.014Z,60.35
2019-03-30T04:35:19.063Z,60.14
2019-03-30T04:38:42.946Z,60.63
2019-03-30T04:42:07.229Z,60.18
2019-03-30T04:45:31.181Z,60.07
2019-03-30T04:48:55.287Z,60.17
2019-03-30T04:52:19.214Z,60.45
2019-03-30T04:55:43.867Z,60.56
2019-03-30T04:59:07.793Z,61.00
2019-03-30T05:02:31.730Z,61.75
2019-03-30T05:05:55.683Z,61.15
2019-03-30T05:09:19.676Z,62.92
2019-03-30T05:12:43.679Z,63.84
2019-03-30T05:16:07.639Z,62.59
2019-03-30T05:19:31.949Z,62.51
2019-03-30T05:22:55.862Z,62.27
2019-03-30T05:26:19.819Z,61.58
2019-03-30T05:29:43.693Z,61.36
2019-03-30T05:33:07.637Z,61.69
2019-03-30T05:36:31.573Z,59.89
2019-03-30T05:39:55.525Z,59.16
2019-03-30T05:43:19.558Z,58.69
2019-03-30T05:46:44.181Z,58.46
2019-03-30T05:50:08.259Z,57.79
2019-03-30T05:53:32.228Z,58.54
2019-03-30T05:56:57.296Z,58.62
2019-03-30T06:00:23.249Z,58.25
2019-03-30T06:03:47.210Z,57.80
2019-03-30T06:07:11.563Z,57.20
2019-03-30T06:10:38.628Z,57.25
2019-03-30T06:14:01.372Z,56.74
2019-03-30T06:17:25.277Z,56.92
2019-03-30T06:20:49.236Z,56.26
2019-03-30T06:24:13.138Z,56.37
2019-03-30T06:27:37.181Z,56.23
2019-03-30T06:31:01.296Z,55.88
2019-03-30T06:34:25.602Z,56.00
2019-03-30T06:37:49.611Z,56.29
2019-03-30T06:41:13.605Z,56.40
2019-03-30T06:44:37.650Z,56.77
2019-03-30T06:48:02.183Z,56.54
2019-03-30T06:51:26.537Z,56.60
2019-03-30T06:54:50.476Z,56.28
2019-03-30T06:58:15.501Z,55.97
2019-03-30T07:01:40.286Z,56.16
2019-03-30T07:05:05.127Z,56.13
2019-03-30T07:08:32.247Z,56.85
2019-03-30T07:11:59.362Z,56.07
2019-03-30T07:15:25.104Z,55.73
2019-03-30T07:18:51.532Z,56.34
2019-03-30T07:22:16.294Z,55.16
2019-03-30T07:25:40.269Z,55.07
2019-03-30T07:29:04.193Z,55.57
2019-03-30T07:32:28.192Z,54.86
2019-03-30T07:35:52.581Z,55.49
2019-03-30T07:39:16.545Z,55.19
2019-03-30T07:42:40.773Z,54.62
2019-03-30T07:46:04.830Z,55.23
2019-03-30T07:49:29.010Z,55.18
2019-03-30T07:52:52.940Z,54.41
2019-03-30T07:56:17.445Z,55.04
2019-03-30T07:59:41.367Z,54.42
2019-03-30T08:03:05.845Z,54.83
2019-03-30T08:06:29.779Z,55.04
2019-03-30T08:09:53.850Z,55.79
2019-03-30T08:13:17.881Z,55.11
2019-03-30T08:16:41.923Z,55.09
2019-03-30T08:20:06.434Z,54.18
2019-03-30T08:23:40.334Z,54.06
2019-03-30T08:26:56.423Z,53.80
2019-03-30T08:30:20.432Z,54.05
2019-03-30T08:33:44.493Z,52.87
2019-03-30T08:37:08.379Z,52.57
2019-03-30T08:40:32.368Z,52.75
2019-03-30T08:43:56.271Z,52.05
2019-03-30T08:47:20.231Z,51.42
2019-03-30T08:50:44.156Z,52.18
2019-03-30T08:54:08.263Z,51.68
2019-03-30T08:57:32.232Z,51.32
2019-03-30T09:00:56.201Z,50.54
2019-03-30T09:04:20.157Z,50.70
2019-03-30T09:07:44.357Z,51.68
2019-03-30T09:11:08.875Z,48.07
2019-03-30T09:14:32.785Z,48.02
2019-03-30T09:17:56.880Z,46.33
2019-03-30T09:21:20.897Z,46.31
2019-03-30T09:24:44.905Z,44.55
2019-03-30T09:28:08.890Z,44.95
2019-03-30T09:31:32.970Z,44.49
2019-03-30T09:34:57.004Z,45.03
2019-03-30T09:38:21.317Z,44.52
2019-03-30T09:41:45.305Z,44.71
2019-03-30T09:45:09.411Z,45.08
2019-03-30T09:48:33.835Z,44.88
2019-03-30T09:51:58.481Z,43.21
2019-03-30T09:55:22.559Z,42.67
2019-03-30T09:58:46.598Z,44.27
2019-03-30T10:02:10.734Z,41.26
2019-03-30T10:05:34.672Z,41.61
2019-03-30T10:08:58.814Z,40.37
2019-03-30T10:12:27.291Z,40.29
2019-03-30T10:15:54.732Z,40.29
2019-03-30T10:19:21.808Z,35.52
2019-03-30T10:22:45.794Z,33.00
2019-03-30T10:26:09.859Z,28.93
2019-03-30T10:29:33.829Z,29.73
2019-03-30T10:32:57.789Z,26.43
2019-03-30T10:36:22.868Z,25.98
2019-03-30T10:39:46.885Z,27.04
2019-03-30T10:43:10.880Z,27.41
2019-03-30T10:46:34.956Z,26.91
2019-03-30T10:49:59.152Z,27.37
2019-03-30T10:53:23.059Z,27.68
2019-03-30T10:56:47.122Z,28.01
2019-03-30T11:00:14.069Z,28.37
2019-03-30T11:03:38.078Z,29.16
2019-03-30T11:07:02.291Z,29.76
2019-03-30T11:10:26.253Z,29.82
2019-03-30T11:13:50.181Z,30.17
2019-03-30T11:17:14.139Z,29.50
2019-03-30T11:20:38.526Z,28.83
2019-03-30T11:24:06.346Z,29.10
2019-03-30T11:27:28.623Z,28.62
2019-03-30T11:30:52.679Z,28.35
2019-03-30T11:34:16.978Z,29.83
2019-03-30T11:37:41.633Z,28.05
2019-03-30T11:41:05.645Z,27.19
2019-03-30T11:44:29.638Z,26.57
2019-03-30T11:47:54.001Z,27.27
2019-03-30T11:51:17.976Z,27.82
